sensor_id;sensor_type;location;lat;lon;timestamp;temperature;humidity
83964;DHT22;73994;50.868;5.420;2024-03-17T00:00:21;7.40;72.90
83964;DHT22;73994;50.868;5.420;2024-03-17T00:02:47;7.40;73.20
83964;DHT22;73994;50.868;5.420;2024-03-17T00:05:13;7.50;73.10
83964;DHT22;73994;50.868;5.420;2024-03-17T00:07:40;7.50;73.00
83964;DHT22;73994;50.868;5.420;2024-03-17T00:10:06;7.50;73.00
83964;DHT22;73994;50.868;5.420;2024-03-17T00:12:36;7.40;73.20
83964;DHT22;73994;50.868;5.420;2024-03-17T00:15:02;7.40;73.20
83964;DHT22;73994;50.868;5.420;2024-03-17T00:17:28;7.40;73.40
83964;DHT22;73994;50.868;5.420;2024-03-17T00:19:54;7.40;73.10
83964;DHT22;73994;50.868;5.420;2024-03-17T00:22:19;7.30;73.60
83964;DHT22;73994;50.868;5.420;2024-03-17T00:24:45;7.40;73.50
83964;DHT22;73994;50.868;5.420;2024-03-17T00:27:11;7.40;73.80
83964;DHT22;73994;50.868;5.420;2024-03-17T00:29:40;7.30;73.60
83964;DHT22;73994;50.868;5.420;2024-03-17T00:32:06;7.20;73.90
83964;DHT22;73994;50.868;5.420;2024-03-17T00:34:32;7.20;74.00
83964;DHT22;73994;50.868;5.420;2024-03-17T00:36:58;7.20;74.00
83964;DHT22;73994;50.868;5.420;2024-03-17T00:39:25;7.20;74.00
83964;DHT22;73994;50.868;5.420;2024-03-17T00:41:51;7.10;74.00
83964;DHT22;73994;50.868;5.420;2024-03-17T00:44:16;7.10;74.00
83964;DHT22;73994;50.868;5.420;2024-03-17T00:46:42;7.00;74.00
83964;DHT22;73994;50.868;5.420;2024-03-17T00:49:09;7.00;74.00
83964;DHT22;73994;50.868;5.420;2024-03-17T00:51:35;6.90;74.00
83964;DHT22;73994;50.868;5.420;2024-03-17T00:54:01;6.90;74.00
83964;DHT22;73994;50.868;5.420;2024-03-17T00:56:27;6.80;74.30
83964;DHT22;73994;50.868;5.420;2024-03-17T00:58:53;6.70;74.50
83964;DHT22;73994;50.868;5.420;2024-03-17T01:01:19;6.60;74.40
83964;DHT22;73994;50.868;5.420;2024-03-17T01:03:47;6.60;74.50
83964;DHT22;73994;50.868;5.420;2024-03-17T01:06:13;6.50;74.40
83964;DHT22;73994;50.868;5.420;2024-03-17T01:08:39;6.50;74.30
83964;DHT22;73994;50.868;5.420;2024-03-17T01:11:05;6.40;74.30
83964;DHT22;73994;50.868;5.420;2024-03-17T01:13:34;6.40;74.50
83964;DHT22;73994;50.868;5.420;2024-03-17T01:16:00;6.40;74.50
83964;DHT22;73994;50.868;5.420;2024-03-17T01:18:26;6.40;74.40
83964;DHT22;73994;50.868;5.420;2024-03-17T01:20:52;6.40;74.40
83964;DHT22;73994;50.868;5.420;2024-03-17T01:23:17;6.30;74.30
83964;DHT22;73994;50.868;5.420;2024-03-17T01:25:43;6.30;74.10
83964;DHT22;73994;50.868;5.420;2024-03-17T01:28:09;6.30;74.20
83964;DHT22;73994;50.868;5.420;2024-03-17T01:30:35;6.30;74.10
83964;DHT22;73994;50.868;5.420;2024-03-17T01:33:01;6.30;74.30
83964;DHT22;73994;50.868;5.420;2024-03-17T01:35:27;6.30;73.90
83964;DHT22;73994;50.868;5.420;2024-03-17T01:37:52;6.40;73.80
83964;DHT22;73994;50.868;5.420;2024-03-17T01:40:18;6.50;73.60
83964;DHT22;73994;50.868;5.420;2024-03-17T01:42:44;6.60;73.30
83964;DHT22;73994;50.868;5.420;2024-03-17T01:45:29;6.70;72.90
83964;DHT22;73994;50.868;5.420;2024-03-17T01:47:55;6.80;73.00
83964;DHT22;73994;50.868;5.420;2024-03-17T01:50:33;6.90;72.90
83964;DHT22;73994;50.868;5.420;2024-03-17T01:53:02;7.00;72.50
83964;DHT22;73994;50.868;5.420;2024-03-17T01:55:33;7.00;72.90
83964;DHT22;73994;50.868;5.420;2024-03-17T01:58:00;7.00;72.40
83964;DHT22;73994;50.868;5.420;2024-03-17T02:00:27;7.10;72.50
83964;DHT22;73994;50.868;5.420;2024-03-17T02:02:54;7.10;72.50
83964;DHT22;73994;50.868;5.420;2024-03-17T02:05:20;7.20;72.80
83964;DHT22;73994;50.868;5.420;2024-03-17T02:07:46;7.20;73.00
83964;DHT22;73994;50.868;5.420;2024-03-17T02:10:11;7.20;72.90
83964;DHT22;73994;50.868;5.420;2024-03-17T02:12:37;7.20;72.70
83964;DHT22;73994;50.868;5.420;2024-03-17T02:15:03;7.30;73.00
83964;DHT22;73994;50.868;5.420;2024-03-17T02:17:33;7.30;73.10
83964;DHT22;73994;50.868;5.420;2024-03-17T02:19:59;7.40;73.40
83964;DHT22;73994;50.868;5.420;2024-03-17T02:22:25;7.40;73.50
83964;DHT22;73994;50.868;5.420;2024-03-17T02:24:53;7.40;73.50
83964;DHT22;73994;50.868;5.420;2024-03-17T02:27:18;7.50;72.80
83964;DHT22;73994;50.868;5.420;2024-03-17T02:29:44;7.50;73.00
83964;DHT22;73994;50.868;5.420;2024-03-17T02:32:10;7.50;72.90
83964;DHT22;73994;50.868;5.420;2024-03-17T02:34:38;7.50;73.30
83964;DHT22;73994;50.868;5.420;2024-03-17T02:37:04;7.50;73.40
83964;DHT22;73994;50.868;5.420;2024-03-17T02:39:33;7.50;72.80
83964;DHT22;73994;50.868;5.420;2024-03-17T02:42:03;7.50;73.10
83964;DHT22;73994;50.868;5.420;2024-03-17T02:44:30;7.60;72.90
83964;DHT22;73994;50.868;5.420;2024-03-17T02:46:57;7.60;72.90
83964;DHT22;73994;50.868;5.420;2024-03-17T02:49:24;7.60;73.00
83964;DHT22;73994;50.868;5.420;2024-03-17T02:51:50;7.60;73.00
83964;DHT22;73994;50.868;5.420;2024-03-17T02:54:15;7.60;73.50
83964;DHT22;73994;50.868;5.420;2024-03-17T02:56:42;7.60;72.00
83964;DHT22;73994;50.868;5.420;2024-03-17T02:59:07;7.60;72.90
83964;DHT22;73994;50.868;5.420;2024-03-17T03:01:33;7.60;71.30
83964;DHT22;73994;50.868;5.420;2024-03-17T03:03:58;7.60;72.60
83964;DHT22;73994;50.868;5.420;2024-03-17T03:06:24;7.60;73.00
83964;DHT22;73994;50.868;5.420;2024-03-17T03:08:50;7.50;73.40
83964;DHT22;73994;50.868;5.420;2024-03-17T03:11:17;7.50;73.90
83964;DHT22;73994;50.868;5.420;2024-03-17T03:13:43;7.40;74.00
83964;DHT22;73994;50.868;5.420;2024-03-17T03:16:13;7.30;74.00
83964;DHT22;73994;50.868;5.420;2024-03-17T03:18:42;7.20;74.40
83964;DHT22;73994;50.868;5.420;2024-03-17T03:21:10;7.10;74.70
83964;DHT22;73994;50.868;5.420;2024-03-17T03:23:36;7.00;74.80
83964;DHT22;73994;50.868;5.420;2024-03-17T03:26:03;7.00;74.90
83964;DHT22;73994;50.868;5.420;2024-03-17T03:28:33;7.00;74.80
83964;DHT22;73994;50.868;5.420;2024-03-17T03:30:59;6.90;74.90
83964;DHT22;73994;50.868;5.420;2024-03-17T03:33:25;6.90;74.80
83964;DHT22;73994;50.868;5.420;2024-03-17T03:35:51;6.80;74.10
83964;DHT22;73994;50.868;5.420;2024-03-17T03:38:17;6.80;74.30
83964;DHT22;73994;50.868;5.420;2024-03-17T03:40:44;6.90;74.10
83964;DHT22;73994;50.868;5.420;2024-03-17T03:43:10;6.90;73.70
83964;DHT22;73994;50.868;5.420;2024-03-17T03:45:36;6.90;73.20
83964;DHT22;73994;50.868;5.420;2024-03-17T03:48:03;6.90;73.20
83964;DHT22;73994;50.868;5.420;2024-03-17T03:50:29;6.90;73.40
83964;DHT22;73994;50.868;5.420;2024-03-17T03:52:55;6.90;72.60
83964;DHT22;73994;50.868;5.420;2024-03-17T03:55:21;6.80;72.60
83964;DHT22;73994;50.868;5.420;2024-03-17T03:57:47;6.80;72.60
83964;DHT22;73994;50.868;5.420;2024-03-17T04:00:17;6.80;72.80
83964;DHT22;73994;50.868;5.420;2024-03-17T04:02:48;6.70;72.70
83964;DHT22;73994;50.868;5.420;2024-03-17T04:05:14;6.70;73.00
83964;DHT22;73994;50.868;5.420;2024-03-17T04:07:39;6.80;72.40
83964;DHT22;73994;50.868;5.420;2024-03-17T04:10:06;6.80;72.50
83964;DHT22;73994;50.868;5.420;2024-03-17T04:12:32;6.90;72.10
83964;DHT22;73994;50.868;5.420;2024-03-17T04:14:59;6.90;72.20
83964;DHT22;73994;50.868;5.420;2024-03-17T04:17:25;6.90;72.50
83964;DHT22;73994;50.868;5.420;2024-03-17T04:19:52;7.00;71.90
83964;DHT22;73994;50.868;5.420;2024-03-17T04:22:18;7.00;72.10
83964;DHT22;73994;50.868;5.420;2024-03-17T04:24:45;7.00;71.90
83964;DHT22;73994;50.868;5.420;2024-03-17T04:27:11;7.00;71.50
83964;DHT22;73994;50.868;5.420;2024-03-17T04:29:37;7.00;71.60
83964;DHT22;73994;50.868;5.420;2024-03-17T04:32:03;7.10;71.40
83964;DHT22;73994;50.868;5.420;2024-03-17T04:34:30;7.20;71.60
83964;DHT22;73994;50.868;5.420;2024-03-17T04:36:56;7.20;70.90
83964;DHT22;73994;50.868;5.420;2024-03-17T04:39:22;7.20;71.00
83964;DHT22;73994;50.868;5.420;2024-03-17T04:41:48;7.20;71.40
83964;DHT22;73994;50.868;5.420;2024-03-17T04:44:15;7.20;71.20
83964;DHT22;73994;50.868;5.420;2024-03-17T04:46:41;7.20;71.10
83964;DHT22;73994;50.868;5.420;2024-03-17T04:49:07;7.20;71.20
83964;DHT22;73994;50.868;5.420;2024-03-17T04:51:34;7.10;71.20
83964;DHT22;73994;50.868;5.420;2024-03-17T04:54:00;7.10;71.60
83964;DHT22;73994;50.868;5.420;2024-03-17T04:56:28;7.00;71.90
83964;DHT22;73994;50.868;5.420;2024-03-17T04:58:54;7.00;72.40
83964;DHT22;73994;50.868;5.420;2024-03-17T05:01:20;7.00;72.20
83964;DHT22;73994;50.868;5.420;2024-03-17T05:03:45;7.00;72.50
83964;DHT22;73994;50.868;5.420;2024-03-17T05:06:11;7.00;72.60
83964;DHT22;73994;50.868;5.420;2024-03-17T05:08:37;6.90;73.10
83964;DHT22;73994;50.868;5.420;2024-03-17T05:11:05;6.90;73.10
83964;DHT22;73994;50.868;5.420;2024-03-17T05:13:32;6.90;72.80
83964;DHT22;73994;50.868;5.420;2024-03-17T05:15:59;6.80;72.80
83964;DHT22;73994;50.868;5.420;2024-03-17T05:18:24;6.80;72.80
83964;DHT22;73994;50.868;5.420;2024-03-17T05:21:09;6.80;73.10
83964;DHT22;73994;50.868;5.420;2024-03-17T05:23:36;6.80;72.80
83964;DHT22;73994;50.868;5.420;2024-03-17T05:26:03;6.70;73.20
83964;DHT22;73994;50.868;5.420;2024-03-17T05:28:31;6.70;73.10
83964;DHT22;73994;50.868;5.420;2024-03-17T05:30:57;6.70;73.00
83964;DHT22;73994;50.868;5.420;2024-03-17T05:33:25;6.60;73.10
83964;DHT22;73994;50.868;5.420;2024-03-17T05:35:58;6.60;73.10
83964;DHT22;73994;50.868;5.420;2024-03-17T05:38:26;6.60;73.20
83964;DHT22;73994;50.868;5.420;2024-03-17T05:41:03;6.60;73.20
83964;DHT22;73994;50.868;5.420;2024-03-17T05:43:30;6.60;72.90
83964;DHT22;73994;50.868;5.420;2024-03-17T05:46:00;6.60;72.80
83964;DHT22;73994;50.868;5.420;2024-03-17T05:48:29;6.50;72.70
83964;DHT22;73994;50.868;5.420;2024-03-17T05:50:56;6.50;72.90
83964;DHT22;73994;50.868;5.420;2024-03-17T05:53:24;6.50;72.80
83964;DHT22;73994;50.868;5.420;2024-03-17T05:55:50;6.60;72.70
83964;DHT22;73994;50.868;5.420;2024-03-17T05:58:16;6.60;73.00
83964;DHT22;73994;50.868;5.420;2024-03-17T06:00:41;6.60;72.60
83964;DHT22;73994;50.868;5.420;2024-03-17T06:03:07;6.60;72.70
83964;DHT22;73994;50.868;5.420;2024-03-17T06:05:37;6.60;73.00
83964;DHT22;73994;50.868;5.420;2024-03-17T06:08:05;6.60;72.90
83964;DHT22;73994;50.868;5.420;2024-03-17T06:10:32;6.70;72.80
83964;DHT22;73994;50.868;5.420;2024-03-17T06:12:58;6.80;72.50
83964;DHT22;73994;50.868;5.420;2024-03-17T06:15:24;6.90;71.90
83964;DHT22;73994;50.868;5.420;2024-03-17T06:17:51;7.00;72.20
83964;DHT22;73994;50.868;5.420;2024-03-17T06:20:28;7.10;71.60
83964;DHT22;73994;50.868;5.420;2024-03-17T06:22:54;7.20;71.40
83964;DHT22;73994;50.868;5.420;2024-03-17T06:25:20;7.40;71.30
83964;DHT22;73994;50.868;5.420;2024-03-17T06:27:50;7.50;71.10
83964;DHT22;73994;50.868;5.420;2024-03-17T06:30:15;7.60;71.20
83964;DHT22;73994;50.868;5.420;2024-03-17T06:32:42;7.80;71.50
83964;DHT22;73994;50.868;5.420;2024-03-17T06:35:14;8.00;70.00
83964;DHT22;73994;50.868;5.420;2024-03-17T06:37:46;8.00;69.20
83964;DHT22;73994;50.868;5.420;2024-03-17T06:40:14;8.10;68.90
83964;DHT22;73994;50.868;5.420;2024-03-17T06:42:39;8.10;70.60
83964;DHT22;73994;50.868;5.420;2024-03-17T06:45:06;8.00;70.70
83964;DHT22;73994;50.868;5.420;2024-03-17T06:47:37;8.10;68.20
83964;DHT22;73994;50.868;5.420;2024-03-17T06:50:04;8.10;68.30
83964;DHT22;73994;50.868;5.420;2024-03-17T06:52:30;8.10;68.30
83964;DHT22;73994;50.868;5.420;2024-03-17T06:54:57;8.10;68.40
83964;DHT22;73994;50.868;5.420;2024-03-17T06:57:24;8.10;68.30
83964;DHT22;73994;50.868;5.420;2024-03-17T06:59:49;8.10;69.00
83964;DHT22;73994;50.868;5.420;2024-03-17T07:02:16;8.10;69.00
83964;DHT22;73994;50.868;5.420;2024-03-17T07:04:44;8.10;68.20
83964;DHT22;73994;50.868;5.420;2024-03-17T07:07:10;8.20;69.00
83964;DHT22;73994;50.868;5.420;2024-03-17T07:09:36;8.30;68.90
83964;DHT22;73994;50.868;5.420;2024-03-17T07:12:01;8.40;68.90
83964;DHT22;73994;50.868;5.420;2024-03-17T07:14:27;8.60;67.30
83964;DHT22;73994;50.868;5.420;2024-03-17T07:16:53;8.60;66.60
83964;DHT22;73994;50.868;5.420;2024-03-17T07:19:19;8.80;66.00
83964;DHT22;73994;50.868;5.420;2024-03-17T07:21:45;8.90;66.40
83964;DHT22;73994;50.868;5.420;2024-03-17T07:24:10;9.00;65.80
83964;DHT22;73994;50.868;5.420;2024-03-17T07:26:36;9.10;65.40
83964;DHT22;73994;50.868;5.420;2024-03-17T07:29:02;9.30;65.40
83964;DHT22;73994;50.868;5.420;2024-03-17T07:31:27;9.40;65.00
83964;DHT22;73994;50.868;5.420;2024-03-17T07:33:53;9.60;64.60
83964;DHT22;73994;50.868;5.420;2024-03-17T07:36:19;9.70;64.30
83964;DHT22;73994;50.868;5.420;2024-03-17T07:38:44;9.80;64.80
83964;DHT22;73994;50.868;5.420;2024-03-17T07:41:10;9.90;63.80
83964;DHT22;73994;50.868;5.420;2024-03-17T07:43:37;10.00;63.60
83964;DHT22;73994;50.868;5.420;2024-03-17T07:46:05;10.00;63.90
83964;DHT22;73994;50.868;5.420;2024-03-17T07:48:33;10.20;63.80
83964;DHT22;73994;50.868;5.420;2024-03-17T07:51:01;10.40;63.30
83964;DHT22;73994;50.868;5.420;2024-03-17T07:53:32;10.40;63.10
83964;DHT22;73994;50.868;5.420;2024-03-17T07:56:06;10.40;62.80
83964;DHT22;73994;50.868;5.420;2024-03-17T07:58:33;10.50;63.00
83964;DHT22;73994;50.868;5.420;2024-03-17T08:01:19;10.60;62.20
83964;DHT22;73994;50.868;5.420;2024-03-17T08:03:46;10.80;62.20
83964;DHT22;73994;50.868;5.420;2024-03-17T08:06:15;10.80;61.60
83964;DHT22;73994;50.868;5.420;2024-03-17T08:08:40;10.90;62.10
83964;DHT22;73994;50.868;5.420;2024-03-17T08:11:06;10.90;61.60
83964;DHT22;73994;50.868;5.420;2024-03-17T08:13:32;10.90;62.00
83964;DHT22;73994;50.868;5.420;2024-03-17T08:16:07;10.90;61.60
83964;DHT22;73994;50.868;5.420;2024-03-17T08:18:36;11.00;61.80
83964;DHT22;73994;50.868;5.420;2024-03-17T08:21:03;10.90;61.90
83964;DHT22;73994;50.868;5.420;2024-03-17T08:23:35;11.00;62.10
83964;DHT22;73994;50.868;5.420;2024-03-17T08:26:03;11.00;62.40
83964;DHT22;73994;50.868;5.420;2024-03-17T08:28:29;10.90;62.50
83964;DHT22;73994;50.868;5.420;2024-03-17T08:30:56;11.10;62.70
83964;DHT22;73994;50.868;5.420;2024-03-17T08:33:22;11.10;62.30
83964;DHT22;73994;50.868;5.420;2024-03-17T08:36:02;11.20;62.00
83964;DHT22;73994;50.868;5.420;2024-03-17T08:38:30;11.30;61.90
83964;DHT22;73994;50.868;5.420;2024-03-17T08:41:01;11.50;61.50
83964;DHT22;73994;50.868;5.420;2024-03-17T08:43:27;11.50;61.90
83964;DHT22;73994;50.868;5.420;2024-03-17T08:45:58;11.60;61.80
83964;DHT22;73994;50.868;5.420;2024-03-17T08:48:27;11.70;61.20
83964;DHT22;73994;50.868;5.420;2024-03-17T08:50:54;11.90;60.90
83964;DHT22;73994;50.868;5.420;2024-03-17T08:53:21;11.90;60.90
83964;DHT22;73994;50.868;5.420;2024-03-17T08:55:47;12.10;60.40
83964;DHT22;73994;50.868;5.420;2024-03-17T08:58:13;12.40;60.50
83964;DHT22;73994;50.868;5.420;2024-03-17T09:00:39;12.60;60.10
83964;DHT22;73994;50.868;5.420;2024-03-17T09:03:06;12.90;59.70
83964;DHT22;73994;50.868;5.420;2024-03-17T09:05:36;13.10;59.10
83964;DHT22;73994;50.868;5.420;2024-03-17T09:08:02;13.30;58.90
83964;DHT22;73994;50.868;5.420;2024-03-17T09:10:28;13.80;57.70
83964;DHT22;73994;50.868;5.420;2024-03-17T09:12:53;13.90;58.00
83964;DHT22;73994;50.868;5.420;2024-03-17T09:15:20;14.10;57.40
83964;DHT22;73994;50.868;5.420;2024-03-17T09:17:46;14.10;57.00
83964;DHT22;73994;50.868;5.420;2024-03-17T09:20:12;14.40;57.50
83964;DHT22;73994;50.868;5.420;2024-03-17T09:22:42;14.40;56.50
83964;DHT22;73994;50.868;5.420;2024-03-17T09:25:08;14.00;57.00
83964;DHT22;73994;50.868;5.420;2024-03-17T09:27:35;13.90;57.60
83964;DHT22;73994;50.868;5.420;2024-03-17T09:30:05;13.90;57.80
83964;DHT22;73994;50.868;5.420;2024-03-17T09:32:32;14.20;57.70
83964;DHT22;73994;50.868;5.420;2024-03-17T09:34:58;14.60;57.30
83964;DHT22;73994;50.868;5.420;2024-03-17T09:37:24;14.90;56.40
83964;DHT22;73994;50.868;5.420;2024-03-17T09:39:50;15.00;55.80
83964;DHT22;73994;50.868;5.420;2024-03-17T09:42:19;14.90;55.60
83964;DHT22;73994;50.868;5.420;2024-03-17T09:44:48;15.00;55.80
83964;DHT22;73994;50.868;5.420;2024-03-17T09:47:21;15.00;56.30
83964;DHT22;73994;50.868;5.420;2024-03-17T09:49:47;15.30;56.00
83964;DHT22;73994;50.868;5.420;2024-03-17T09:52:24;15.60;55.00
83964;DHT22;73994;50.868;5.420;2024-03-17T09:55:01;16.10;54.60
83964;DHT22;73994;50.868;5.420;2024-03-17T09:57:28;16.20;54.90
83964;DHT22;73994;50.868;5.420;2024-03-17T09:59:54;16.60;54.00
83964;DHT22;73994;50.868;5.420;2024-03-17T10:02:20;16.50;53.60
83964;DHT22;73994;50.868;5.420;2024-03-17T10:04:47;16.00;54.40
83964;DHT22;73994;50.868;5.420;2024-03-17T10:07:12;16.00;54.30
83964;DHT22;73994;50.868;5.420;2024-03-17T10:09:40;15.60;55.00
83964;DHT22;73994;50.868;5.420;2024-03-17T10:12:28;15.60;55.50
83964;DHT22;73994;50.868;5.420;2024-03-17T10:15:01;15.60;55.20
83964;DHT22;73994;50.868;5.420;2024-03-17T10:17:33;15.50;55.50
83964;DHT22;73994;50.868;5.420;2024-03-17T10:20:21;15.60;55.40
83964;DHT22;73994;50.868;5.420;2024-03-17T10:23:00;15.60;55.10
83964;DHT22;73994;50.868;5.420;2024-03-17T10:25:31;15.80;55.20
83964;DHT22;73994;50.868;5.420;2024-03-17T10:27:57;15.90;54.70
83964;DHT22;73994;50.868;5.420;2024-03-17T10:30:24;16.00;55.20
83964;DHT22;73994;50.868;5.420;2024-03-17T10:32:58;16.00;54.60
83964;DHT22;73994;50.868;5.420;2024-03-17T10:35:28;16.00;55.20
83964;DHT22;73994;50.868;5.420;2024-03-17T10:37:59;15.60;54.90
83964;DHT22;73994;50.868;5.420;2024-03-17T10:40:26;15.30;55.60
83964;DHT22;73994;50.868;5.420;2024-03-17T10:42:52;15.40;56.20
83964;DHT22;73994;50.868;5.420;2024-03-17T10:45:18;15.20;56.30
83964;DHT22;73994;50.868;5.420;2024-03-17T10:47:50;15.00;57.30
83964;DHT22;73994;50.868;5.420;2024-03-17T10:50:23;15.00;57.20
83964;DHT22;73994;50.868;5.420;2024-03-17T10:52:52;14.80;58.10
83964;DHT22;73994;50.868;5.420;2024-03-17T10:55:25;14.70;58.20
83964;DHT22;73994;50.868;5.420;2024-03-17T10:57:52;14.70;58.10
83964;DHT22;73994;50.868;5.420;2024-03-17T11:00:22;14.70;57.80
83964;DHT22;73994;50.868;5.420;2024-03-17T11:02:52;14.60;58.20
83964;DHT22;73994;50.868;5.420;2024-03-17T11:05:28;14.60;58.00
83964;DHT22;73994;50.868;5.420;2024-03-17T11:07:59;14.40;58.50
83964;DHT22;73994;50.868;5.420;2024-03-17T11:10:30;14.20;59.00
83964;DHT22;73994;50.868;5.420;2024-03-17T11:13:00;14.20;59.70
83964;DHT22;73994;50.868;5.420;2024-03-17T11:20:37;14.10;60.20
83964;DHT22;73994;50.868;5.420;2024-03-17T11:23:02;14.20;60.10
83964;DHT22;73994;50.868;5.420;2024-03-17T11:28:09;14.30;60.00
83964;DHT22;73994;50.868;5.420;2024-03-17T11:38:57;15.20;58.20
83964;DHT22;73994;50.868;5.420;2024-03-17T11:46:42;15.30;58.40
83964;DHT22;73994;50.868;5.420;2024-03-17T11:49:43;15.40;58.50
83964;DHT22;73994;50.868;5.420;2024-03-17T11:52:12;15.60;57.50
83964;DHT22;73994;50.868;5.420;2024-03-17T11:54:45;15.50;57.60
83964;DHT22;73994;50.868;5.420;2024-03-17T11:57:21;15.50;56.40
83964;DHT22;73994;50.868;5.420;2024-03-17T11:59:48;15.40;57.10
83964;DHT22;73994;50.868;5.420;2024-03-17T12:04:46;15.70;57.10
83964;DHT22;73994;50.868;5.420;2024-03-17T12:07:17;15.80;56.30
83964;DHT22;73994;50.868;5.420;2024-03-17T12:09:44;16.00;56.40
83964;DHT22;73994;50.868;5.420;2024-03-17T12:14:43;16.00;55.30
83964;DHT22;73994;50.868;5.420;2024-03-17T12:17:11;16.10;55.80
83964;DHT22;73994;50.868;5.420;2024-03-17T12:19:37;16.50;55.90
83964;DHT22;73994;50.868;5.420;2024-03-17T12:22:04;16.80;54.60
83964;DHT22;73994;50.868;5.420;2024-03-17T12:24:35;16.90;54.50
83964;DHT22;73994;50.868;5.420;2024-03-17T12:27:04;17.00;54.10
83964;DHT22;73994;50.868;5.420;2024-03-17T12:29:31;17.50;53.30
83964;DHT22;73994;50.868;5.420;2024-03-17T12:32:05;17.80;52.00
83964;DHT22;73994;50.868;5.420;2024-03-17T12:34:33;18.20;52.50
83964;DHT22;73994;50.868;5.420;2024-03-17T12:37:02;18.60;51.20
83964;DHT22;73994;50.868;5.420;2024-03-17T12:39:32;18.50;51.40
83964;DHT22;73994;50.868;5.420;2024-03-17T12:42:08;18.10;52.30
83964;DHT22;73994;50.868;5.420;2024-03-17T12:44:51;18.10;52.20
83964;DHT22;73994;50.868;5.420;2024-03-17T12:47:21;18.80;51.70
83964;DHT22;73994;50.868;5.420;2024-03-17T12:49:51;20.10;48.90
83964;DHT22;73994;50.868;5.420;2024-03-17T12:55:19;21.70;46.50
83964;DHT22;73994;50.868;5.420;2024-03-17T13:03:25;22.20;45.10
83964;DHT22;73994;50.868;5.420;2024-03-17T13:05:51;21.70;46.00
83964;DHT22;73994;50.868;5.420;2024-03-17T13:08:17;21.90;45.70
83964;DHT22;73994;50.868;5.420;2024-03-17T13:10:43;22.80;44.50
83964;DHT22;73994;50.868;5.420;2024-03-17T13:13:09;22.90;44.50
83964;DHT22;73994;50.868;5.420;2024-03-17T13:15:36;22.80;44.30
83964;DHT22;73994;50.868;5.420;2024-03-17T13:18:03;23.20;44.70
83964;DHT22;73994;50.868;5.420;2024-03-17T13:20:32;25.00;42.30
83964;DHT22;73994;50.868;5.420;2024-03-17T13:22:58;26.00;40.90
83964;DHT22;73994;50.868;5.420;2024-03-17T13:25:26;25.60;40.80
83964;DHT22;73994;50.868;5.420;2024-03-17T13:27:55;26.60;40.40
83964;DHT22;73994;50.868;5.420;2024-03-17T13:30:22;27.20;39.80
83964;DHT22;73994;50.868;5.420;2024-03-17T13:32:49;27.10;39.20
83964;DHT22;73994;50.868;5.420;2024-03-17T13:35:21;27.30;39.10
83964;DHT22;73994;50.868;5.420;2024-03-17T13:37:49;27.20;40.10
83964;DHT22;73994;50.868;5.420;2024-03-17T13:40:17;27.30;39.50
83964;DHT22;73994;50.868;5.420;2024-03-17T13:42:52;27.00;39.40
83964;DHT22;73994;50.868;5.420;2024-03-17T13:45:19;26.00;40.10
83964;DHT22;73994;50.868;5.420;2024-03-17T13:48:06;26.10;40.50
83964;DHT22;73994;50.868;5.420;2024-03-17T13:50:34;27.10;39.40
83964;DHT22;73994;50.868;5.420;2024-03-17T13:53:00;26.90;39.40
83964;DHT22;73994;50.868;5.420;2024-03-17T13:55:29;28.30;39.00
83964;DHT22;73994;50.868;5.420;2024-03-17T13:57:56;27.60;38.70
83964;DHT22;73994;50.868;5.420;2024-03-17T14:00:26;25.40;41.00
83964;DHT22;73994;50.868;5.420;2024-03-17T14:02:54;24.20;42.30
83964;DHT22;73994;50.868;5.420;2024-03-17T14:05:22;23.50;43.20
83964;DHT22;73994;50.868;5.420;2024-03-17T14:07:49;22.90;44.10
83964;DHT22;73994;50.868;5.420;2024-03-17T14:10:16;22.90;44.10
83964;DHT22;73994;50.868;5.420;2024-03-17T14:12:42;22.00;45.00
83964;DHT22;73994;50.868;5.420;2024-03-17T14:15:10;21.90;45.40
83964;DHT22;73994;50.868;5.420;2024-03-17T14:17:43;21.90;45.50
83964;DHT22;73994;50.868;5.420;2024-03-17T14:20:10;21.50;45.50
83964;DHT22;73994;50.868;5.420;2024-03-17T14:22:46;20.60;47.10
83964;DHT22;73994;50.868;5.420;2024-03-17T14:25:20;20.00;48.10
83964;DHT22;73994;50.868;5.420;2024-03-17T14:27:50;19.50;48.80
83964;DHT22;73994;50.868;5.420;2024-03-17T14:30:19;19.30;49.40
83964;DHT22;73994;50.868;5.420;2024-03-17T14:32:45;19.10;49.70
83964;DHT22;73994;50.868;5.420;2024-03-17T14:35:16;18.80;50.40
83964;DHT22;73994;50.868;5.420;2024-03-17T14:37:43;18.50;50.70
83964;DHT22;73994;50.868;5.420;2024-03-17T14:40:14;18.10;51.20
83964;DHT22;73994;50.868;5.420;2024-03-17T14:42:45;17.80;51.70
83964;DHT22;73994;50.868;5.420;2024-03-17T14:45:11;17.50;51.90
83964;DHT22;73994;50.868;5.420;2024-03-17T14:47:37;17.50;52.50
83964;DHT22;73994;50.868;5.420;2024-03-17T14:50:02;17.40;52.70
83964;DHT22;73994;50.868;5.420;2024-03-17T14:52:28;17.30;53.60
83964;DHT22;73994;50.868;5.420;2024-03-17T14:54:54;17.40;53.20
83964;DHT22;73994;50.868;5.420;2024-03-17T14:57:22;17.40;53.30
83964;DHT22;73994;50.868;5.420;2024-03-17T14:59:47;17.50;52.10
83964;DHT22;73994;50.868;5.420;2024-03-17T15:02:14;17.50;52.40
83964;DHT22;73994;50.868;5.420;2024-03-17T15:04:40;17.50;52.00
83964;DHT22;73994;50.868;5.420;2024-03-17T15:07:06;17.50;52.40
83964;DHT22;73994;50.868;5.420;2024-03-17T15:09:34;17.30;52.60
83964;DHT22;73994;50.868;5.420;2024-03-17T15:11:59;16.90;53.30
83964;DHT22;73994;50.868;5.420;2024-03-17T15:14:27;16.80;53.60
83964;DHT22;73994;50.868;5.420;2024-03-17T15:16:52;16.60;53.60
83964;DHT22;73994;50.868;5.420;2024-03-17T15:19:18;16.50;54.00
83964;DHT22;73994;50.868;5.420;2024-03-17T15:21:45;16.50;54.00
83964;DHT22;73994;50.868;5.420;2024-03-17T15:24:10;16.40;53.90
83964;DHT22;73994;50.868;5.420;2024-03-17T15:26:36;16.40;54.60
83964;DHT22;73994;50.868;5.420;2024-03-17T15:29:02;16.40;54.60
83964;DHT22;73994;50.868;5.420;2024-03-17T15:31:29;16.40;54.20
83964;DHT22;73994;50.868;5.420;2024-03-17T15:33:55;16.40;54.80
83964;DHT22;73994;50.868;5.420;2024-03-17T15:36:22;16.50;54.50
83964;DHT22;73994;50.868;5.420;2024-03-17T15:38:50;16.60;54.50
83964;DHT22;73994;50.868;5.420;2024-03-17T15:41:16;16.50;54.90
83964;DHT22;73994;50.868;5.420;2024-03-17T15:43:42;16.40;55.50
83964;DHT22;73994;50.868;5.420;2024-03-17T15:46:18;16.20;55.10
83964;DHT22;73994;50.868;5.420;2024-03-17T15:48:47;16.00;55.80
83964;DHT22;73994;50.868;5.420;2024-03-17T15:51:13;16.00;55.80
83964;DHT22;73994;50.868;5.420;2024-03-17T15:53:41;15.90;55.90
83964;DHT22;73994;50.868;5.420;2024-03-17T15:56:07;16.00;56.40
83964;DHT22;73994;50.868;5.420;2024-03-17T15:58:33;15.90;56.40
83964;DHT22;73994;50.868;5.420;2024-03-17T16:00:59;15.80;57.30
83964;DHT22;73994;50.868;5.420;2024-03-17T16:03:31;15.80;57.90
83964;DHT22;73994;50.868;5.420;2024-03-17T16:06:06;15.70;56.40
83964;DHT22;73994;50.868;5.420;2024-03-17T16:08:38;15.60;56.60
83964;DHT22;73994;50.868;5.420;2024-03-17T16:11:09;15.60;56.50
83964;DHT22;73994;50.868;5.420;2024-03-17T16:13:39;15.70;56.80
83964;DHT22;73994;50.868;5.420;2024-03-17T16:16:07;15.70;57.10